Terminal Aerodrome Forecast
Issued by NWS

Home | Current Version | Previous Version | Text Only | Print | Product List | Glossary On
Versions: 1 2 3 4 5 6 7 8 9 10 11 12
000
FTUS46 KPDT 272300
TAFYKM
TAF
KYKM 272320Z 2800/2824 13005KT P6SM SCT200
     FM280400 31005KT P6SM BKN200
     FM280800 27008KT P6SM SCT200
     FM281900 14006KT P6SM SKC=

USA.gov is the U.S. government's official web portal to all federal, state and local government web resources and services.